Northrop, Minnesota
Current Conditions -  °F | °C
As of 6:15 PM on Wednesday 26 Nov 2014 (Local Time) from KFRM Reporting Station
Overcast Overcast  
Wind Chill:   Ceiling: 2000
Heat Index: 16°   Visibility: 10mi
Dew Point:   Wind: 17mph
Humidity: 73%   Direction: 320°NW
Pressure: 30.3"   Gusts: NA
Location:  43.74°N, 94.44°W
Report Text: KFRM 270015Z AUTO 32015KT 10SM OVC020 M09/M13 A3030 RMK AO1
Loading
Personal Weather Stations






























Interactive Weather Map New forecast layout! Learn more

10-Day Weather Forecast

Advertisements
Track Severe Weather on mobile